Погода Ломинскоена неделю

Тверская область, Россия

21 - 27 мая
  • 21мая
    Сегодня
    +7°
    +24°
    Небольшая облачность
    ВремяПогодаТемператураВлажностьДавлениеВетер, м/сВероятность осадков
    00:00Ясно и безоблачно+10°C91 %743 мм1.5 м/с2 %
    03:00Ясно и безоблачно+9°C97 %744 мм1.6 м/с2 %
    06:00Ясно и безоблачно+11°C93 %745 мм1.9 м/с2 %
    09:00Ясно и безоблачно+18°C74 %746 мм1.4 м/с2 %
    12:00Практически безоблачно+21°C60 %746 мм2.3 м/с3 %
    15:00Небольшая облачность+23°C50 %746 мм2.1 м/с13 %
    18:00Небольшая облачность+22°C47 %746 мм2.7 м/с10 %
    21:00Ясно и безоблачно+17°C63 %746 мм2.6 м/с2 %
  • 22мая
    Среда
    +7°
    +23°
    Ясно и безоблачно
    ВремяПогодаТемператураВлажностьДавлениеВетер, м/сВероятность осадков
    00:00Ясно и безоблачно+10°C63 %746 мм2.5 м/с2 %
    03:00Ясно и безоблачно+8°C67 %747 мм2.6 м/с2 %
    06:00Ясно и безоблачно+9°C69 %747 мм3.0 м/с2 %
    09:00Ясно и безоблачно+17°C57 %748 мм3.1 м/с2 %
    12:00Ясно и безоблачно+21°C41 %748 мм3.5 м/с2 %
    15:00Ясно и безоблачно+22°C38 %748 мм3.3 м/с2 %
    18:00Ясно и безоблачно+22°C38 %748 мм3.7 м/с2 %
    21:00Ясно и безоблачно+17°C53 %749 мм3.2 м/с2 %
  • 23мая
    Четверг
    +6°
    +21°
    Ясно и безоблачно
    ВремяПогодаТемператураВлажностьДавлениеВетер, м/сВероятность осадков
    00:00Ясно и безоблачно+12°C58 %749 мм3.3 м/с2 %
    03:00Ясно и безоблачно+9°C63 %750 мм3.1 м/с2 %
    06:00Ясно и безоблачно+9°C65 %751 мм3.1 м/с2 %
    09:00Ясно и безоблачно+16°C55 %752 мм3.3 м/с2 %
    12:00Ясно и безоблачно+19°C39 %753 мм4.8 м/с2 %
    15:00Ясно и безоблачно+20°C37 %752 мм4.3 м/с2 %
    18:00Ясно и безоблачно+20°C40 %752 мм4.2 м/с2 %
    21:00Ясно и безоблачно+15°C55 %753 мм2.6 м/с2 %
  • 24мая
    Пятница
    +8°
    +22°
    Ясно и безоблачно
    ВремяПогодаТемператураВлажностьДавлениеВетер, м/сВероятность осадков
    00:00Ясно и безоблачно+10°C58 %753 мм3.3 м/с2 %
    03:00Ясно и безоблачно+8°C61 %754 мм2.7 м/с2 %
    06:00Ясно и безоблачно+8°C62 %755 мм3.0 м/с2 %
    09:00Ясно и безоблачно+15°C46 %756 мм4.0 м/с2 %
    12:00Практически безоблачно+19°C38 %755 мм4.2 м/с2 %
    15:00Ясно и безоблачно+21°C35 %755 мм3.9 м/с2 %
    18:00Ясно и безоблачно+22°C35 %754 мм3.5 м/с2 %
    21:00Ясно и безоблачно+16°C53 %753 мм2.7 м/с2 %
  • 25мая
    Суббота
    +9°
    +24°
    Небольшая облачность
    ВремяПогодаТемператураВлажностьДавлениеВетер, м/сВероятность осадков
    00:00Ясно и безоблачно+11°C60 %754 мм3.2 м/с2 %
    03:00Ясно и безоблачно+9°C72 %754 мм2.8 м/с2 %
    06:00Ясно и безоблачно+9°C75 %754 мм2.9 м/с2 %
    09:00Ясно и безоблачно+17°C59 %754 мм3.0 м/с2 %
    12:00Небольшая облачность+21°C45 %754 мм3.1 м/с5 %
    15:00Небольшая облачность+24°C41 %753 мм3.1 м/с12 %
    18:00Ясно и безоблачно+24°C42 %752 мм2.6 м/с7 %
    21:00Практически безоблачно+17°C63 %751 мм2.1 м/с7 %
Мы используем cookies
Соглашаюсь